createdAt,value
2023-03-16T00:01:05.538Z,99.90
2023-03-16T00:03:35.343Z,99.90
2023-03-16T00:06:03.887Z,99.90
2023-03-16T00:08:32.816Z,99.90
2023-03-16T00:11:02.969Z,99.90
2023-03-16T00:13:32.873Z,99.90
2023-03-16T00:16:04.691Z,99.90
2023-03-16T00:18:41.362Z,99.90
2023-03-16T00:21:10.166Z,99.90
2023-03-16T00:23:38.732Z,99.90
2023-03-16T00:26:10.077Z,99.90
2023-03-16T00:28:38.929Z,99.90
2023-03-16T00:31:12.044Z,99.90
2023-03-16T00:33:43.389Z,99.90
2023-03-16T00:36:12.310Z,99.90
2023-03-16T00:38:45.663Z,99.90
2023-03-16T00:41:16.397Z,99.90
2023-03-16T00:43:45.862Z,99.90
2023-03-16T00:46:16.837Z,99.90
2023-03-16T00:48:48.830Z,99.90
2023-03-16T00:51:19.085Z,99.90
2023-03-16T00:53:48.402Z,99.90
2023-03-16T00:56:17.662Z,99.90
2023-03-16T00:58:46.901Z,99.90
2023-03-16T01:01:19.077Z,99.90
2023-03-16T01:03:49.222Z,99.90
2023-03-16T01:06:20.811Z,99.90
2023-03-16T01:08:49.634Z,99.90
2023-03-16T01:11:20.203Z,99.90
2023-03-16T01:13:49.258Z,99.90
2023-03-16T01:16:19.571Z,99.90
2023-03-16T01:18:50.128Z,99.90
2023-03-16T01:21:18.712Z,99.90
2023-03-16T01:23:47.453Z,99.90
2023-03-16T01:26:17.358Z,99.90
2023-03-16T01:28:46.100Z,99.90
2023-03-16T01:31:18.567Z,99.90
2023-03-16T01:33:48.505Z,99.90
2023-03-16T01:36:19.456Z,99.90
2023-03-16T01:38:48.151Z,99.90
2023-03-16T01:41:17.304Z,99.90
2023-03-16T01:43:46.373Z,99.90
2023-03-16T01:46:22.375Z,99.90
2023-03-16T01:49:08.388Z,99.90
2023-03-16T01:51:43.113Z,99.90
2023-03-16T01:54:22.061Z,99.90
2023-03-16T01:56:56.974Z,99.90
2023-03-16T01:59:29.163Z,99.90
2023-03-16T02:01:59.219Z,99.90
2023-03-16T02:04:52.481Z,99.90
2023-03-16T02:07:24.929Z,99.90
2023-03-16T02:09:57.658Z,99.90
2023-03-16T02:12:26.755Z,99.90
2023-03-16T02:14:55.314Z,99.90
2023-03-16T02:17:26.835Z,99.90
2023-03-16T02:20:09.400Z,99.90
2023-03-16T02:22:39.334Z,99.90
2023-03-16T02:25:08.690Z,99.90
2023-03-16T02:27:45.951Z,99.90
2023-03-16T02:30:17.229Z,99.90
2023-03-16T02:32:47.329Z,99.90
2023-03-16T02:35:16.104Z,99.90
2023-03-16T02:37:44.692Z,99.90
2023-03-16T02:40:22.779Z,99.90
2023-03-16T02:42:57.152Z,99.90
2023-03-16T02:45:33.603Z,99.90
2023-03-16T02:48:06.891Z,99.90
2023-03-16T02:50:35.612Z,99.90
2023-03-16T02:53:04.093Z,99.90
2023-03-16T02:55:32.612Z,99.90
2023-03-16T02:58:01.108Z,99.90
2023-03-16T03:00:32.413Z,99.90
2023-03-16T03:03:01.196Z,99.90
2023-03-16T03:05:29.846Z,99.90
2023-03-16T03:07:58.476Z,99.90
2023-03-16T03:10:27.160Z,99.90
2023-03-16T03:12:56.029Z,99.90
2023-03-16T03:15:24.881Z,99.90
2023-03-16T03:17:55.219Z,99.90
2023-03-16T03:20:23.816Z,99.90
2023-03-16T03:22:54.175Z,99.90
2023-03-16T03:25:23.864Z,99.90
2023-03-16T03:27:54.848Z,99.90
2023-03-16T03:30:28.035Z,99.90
2023-03-16T03:32:58.537Z,99.90
2023-03-16T03:35:27.362Z,99.90
2023-03-16T03:37:56.120Z,99.90
2023-03-16T03:40:24.690Z,99.90
2023-03-16T03:42:53.261Z,99.90
2023-03-16T03:45:21.969Z,99.90
2023-03-16T03:47:51.176Z,99.90
2023-03-16T03:50:21.282Z,99.90
2023-03-16T03:52:49.943Z,99.90
2023-03-16T03:55:18.604Z,99.90
2023-03-16T03:57:47.097Z,99.90
2023-03-16T04:00:21.071Z,99.90
2023-03-16T04:02:49.919Z,99.90
2023-03-16T04:05:18.698Z,99.90
2023-03-16T04:07:48.685Z,99.90
2023-03-16T04:10:17.409Z,99.90
2023-03-16T04:12:45.941Z,99.90
2023-03-16T04:15:14.476Z,99.90
2023-03-16T04:17:43.064Z,99.90
2023-03-16T04:20:13.522Z,99.90
2023-03-16T04:22:42.792Z,99.90
2023-03-16T04:25:13.627Z,99.90
2023-03-16T04:27:42.348Z,99.90
2023-03-16T04:30:13.251Z,99.90
2023-03-16T04:32:42.210Z,99.90
2023-03-16T04:35:11.563Z,99.90
2023-03-16T04:37:40.194Z,99.90
2023-03-16T04:40:16.916Z,99.90
2023-03-16T04:42:48.034Z,99.90
2023-03-16T04:45:19.071Z,99.90
2023-03-16T04:47:47.805Z,99.90
2023-03-16T04:50:16.340Z,99.90
2023-03-16T04:52:44.873Z,99.90
2023-03-16T04:55:13.395Z,99.90
2023-03-16T04:57:41.934Z,99.90
2023-03-16T05:00:19.206Z,99.90
2023-03-16T05:02:48.001Z,99.90
2023-03-16T05:05:16.985Z,99.90
2023-03-16T05:07:45.996Z,99.90
2023-03-16T05:10:16.603Z,99.90
2023-03-16T05:12:45.204Z,99.90
2023-03-16T05:15:15.332Z,99.90
2023-03-16T05:17:44.284Z,99.90
2023-03-16T05:20:16.156Z,99.90
2023-03-16T05:22:48.326Z,99.90
2023-03-16T05:25:18.254Z,99.90
2023-03-16T05:27:48.329Z,99.90
2023-03-16T05:30:19.217Z,99.90
2023-03-16T05:32:47.980Z,99.90
2023-03-16T05:35:16.651Z,99.90
2023-03-16T05:37:45.551Z,99.90
2023-03-16T05:40:17.447Z,99.90
2023-03-16T05:42:47.457Z,99.90
2023-03-16T05:45:18.790Z,99.90
2023-03-16T05:47:47.668Z,99.90
2023-03-16T05:50:17.877Z,99.90
2023-03-16T05:52:49.295Z,99.90
2023-03-16T05:55:19.894Z,99.90
2023-03-16T05:57:55.056Z,99.90
2023-03-16T06:00:28.130Z,99.90
2023-03-16T06:02:57.220Z,99.90
2023-03-16T06:05:26.037Z,99.90
2023-03-16T06:07:54.766Z,99.90
2023-03-16T06:10:23.395Z,99.90
2023-03-16T06:12:52.347Z,99.90
2023-03-16T06:15:25.161Z,99.90
2023-03-16T06:17:55.112Z,99.90
2023-03-16T06:20:24.303Z,99.90
2023-03-16T06:22:53.307Z,99.90
2023-03-16T06:25:22.091Z,99.90
2023-03-16T06:27:50.624Z,99.90
2023-03-16T06:30:34.212Z,99.90
2023-03-16T06:33:05.350Z,99.90
2023-03-16T06:35:34.231Z,99.90
2023-03-16T06:38:06.961Z,99.90
2023-03-16T06:40:35.770Z,99.90
2023-03-16T06:43:08.604Z,99.90
2023-03-16T06:45:38.527Z,99.90
2023-03-16T06:48:12.893Z,99.90
2023-03-16T06:50:47.389Z,99.90
2023-03-16T06:53:16.195Z,99.90
2023-03-16T06:55:44.687Z,99.90
2023-03-16T06:58:13.816Z,99.90
2023-03-16T07:00:43.076Z,99.90
2023-03-16T07:03:13.200Z,99.90
2023-03-16T07:05:41.831Z,99.90
2023-03-16T07:08:10.657Z,99.90
2023-03-16T07:10:39.375Z,99.90
2023-03-16T07:13:08.116Z,99.90
2023-03-16T07:15:36.628Z,99.90
2023-03-16T07:18:05.404Z,99.90
2023-03-16T07:20:35.521Z,99.90
2023-03-16T07:23:05.168Z,99.90
2023-03-16T07:25:33.762Z,99.90
2023-03-16T07:28:02.387Z,99.90
2023-03-16T07:30:31.325Z,99.90
2023-03-16T07:32:59.980Z,99.90
2023-03-16T07:35:28.960Z,99.90
2023-03-16T07:37:59.332Z,99.90
2023-03-16T07:40:28.326Z,99.90
2023-03-16T07:42:57.194Z,99.90
2023-03-16T07:45:26.151Z,99.90
2023-03-16T07:47:54.896Z,99.90
2023-03-16T07:50:23.957Z,99.90
2023-03-16T07:52:52.504Z,99.90
2023-03-16T07:55:22.666Z,99.90
2023-03-16T07:57:51.407Z,99.90
2023-03-16T08:00:24.167Z,99.90
2023-03-16T08:02:54.087Z,99.90
2023-03-16T08:05:22.791Z,99.90
2023-03-16T08:07:51.881Z,99.90
2023-03-16T08:10:22.224Z,99.90
2023-03-16T08:12:51.752Z,99.90
2023-03-16T08:15:21.813Z,99.90
2023-03-16T08:17:50.406Z,99.90
2023-03-16T08:20:19.252Z,99.90
2023-03-16T08:22:49.956Z,99.90
2023-03-16T08:25:20.156Z,99.90
2023-03-16T08:27:50.438Z,99.90
2023-03-16T08:30:19.418Z,99.90
2023-03-16T08:32:48.046Z,99.90
2023-03-16T08:35:18.394Z,99.90
2023-03-16T08:37:47.608Z,99.90
2023-03-16T08:40:18.186Z,99.90
2023-03-16T08:42:50.252Z,99.90
2023-03-16T08:45:20.391Z,99.90
2023-03-16T08:47:50.560Z,99.90
2023-03-16T08:50:22.139Z,99.90
2023-03-16T08:52:51.635Z,99.90
2023-03-16T08:55:20.446Z,99.90
2023-03-16T08:57:49.831Z,99.90
2023-03-16T09:00:21.006Z,99.90
2023-03-16T09:02:49.933Z,99.90
2023-03-16T09:05:19.133Z,99.90
2023-03-16T09:07:49.015Z,99.90
2023-03-16T09:10:19.269Z,99.90
2023-03-16T09:12:48.233Z,99.90
2023-03-16T09:15:17.249Z,99.90
2023-03-16T09:17:47.633Z,99.90
2023-03-16T09:20:22.813Z,99.90
2023-03-16T09:22:54.909Z,99.90
2023-03-16T09:25:24.392Z,99.90
2023-03-16T09:28:08.949Z,99.90
2023-03-16T09:30:38.593Z,99.90
2023-03-16T09:33:08.816Z,99.90
2023-03-16T09:35:38.459Z,99.90
2023-03-16T09:38:07.372Z,99.90
2023-03-16T09:40:40.224Z,99.90
2023-03-16T09:43:30.994Z,99.90
2023-03-16T09:46:07.812Z,99.90
2023-03-16T09:48:41.241Z,99.90
2023-03-16T09:51:16.535Z,99.90
2023-03-16T09:53:46.027Z,99.90
2023-03-16T09:56:21.676Z,99.90
2023-03-16T09:58:50.242Z,99.90
2023-03-16T10:01:28.099Z,99.90
2023-03-16T10:04:10.058Z,99.90
2023-03-16T10:06:46.121Z,99.90
2023-03-16T10:09:26.404Z,99.90
2023-03-16T10:11:56.366Z,99.90
2023-03-16T10:14:33.320Z,99.90
2023-03-16T10:17:06.417Z,99.90
2023-03-16T10:19:43.866Z,99.90
2023-03-16T10:22:21.937Z,99.90
2023-03-16T10:25:08.658Z,99.90
2023-03-16T10:27:39.756Z,99.90
2023-03-16T10:30:21.813Z,99.90
2023-03-16T10:32:50.929Z,99.90
2023-03-16T10:35:32.666Z,99.90
2023-03-16T10:38:01.200Z,99.90
2023-03-16T10:40:38.687Z,99.90
2023-03-16T10:43:09.761Z,99.90
2023-03-16T10:45:38.442Z,99.90
2023-03-16T10:48:14.209Z,99.90
2023-03-16T10:50:45.643Z,99.90
2023-03-16T10:53:21.211Z,99.90
2023-03-16T10:55:50.475Z,99.90
2023-03-16T10:58:27.908Z,99.50
2023-03-16T11:00:57.918Z,98.30
2023-03-16T11:03:29.001Z,98.80
2023-03-16T11:06:03.351Z,99.90
2023-03-16T11:08:35.395Z,99.90
2023-03-16T11:11:12.091Z,99.90
2023-03-16T11:13:45.907Z,99.90
2023-03-16T11:16:25.420Z,99.90
2023-03-16T11:18:58.310Z,99.90
2023-03-16T11:21:39.623Z,99.90
2023-03-16T11:24:15.564Z,99.90
2023-03-16T11:26:48.960Z,99.40
2023-03-16T11:29:23.244Z,99.90
2023-03-16T11:31:55.956Z,99.50
2023-03-16T11:34:33.840Z,98.30
2023-03-16T11:37:13.953Z,98.40
2023-03-16T11:39:53.028Z,98.80
2023-03-16T11:42:39.746Z,98.80
2023-03-16T11:45:34.123Z,98.10
2023-03-16T11:48:16.456Z,98.40
2023-03-16T11:51:03.894Z,99.70
2023-03-16T11:53:48.599Z,99.40
2023-03-16T11:56:25.187Z,98.30
2023-03-16T11:59:23.075Z,98.60
2023-03-16T12:02:05.294Z,96.60
2023-03-16T12:04:52.982Z,95.70
2023-03-16T12:07:37.528Z,95.30
2023-03-16T12:10:25.237Z,95.70
2023-03-16T12:13:03.708Z,95.90
2023-03-16T12:15:42.115Z,97.40
2023-03-16T12:18:21.444Z,98.40
2023-03-16T12:20:58.606Z,99.90
2023-03-16T12:23:36.393Z,99.90
2023-03-16T12:26:18.861Z,99.90
2023-03-16T12:28:48.599Z,99.90
2023-03-16T12:31:21.142Z,99.90
2023-03-16T12:34:17.486Z,99.90
2023-03-16T12:37:21.089Z,99.90
2023-03-16T12:40:18.928Z,99.90
2023-03-16T12:43:08.588Z,99.90
2023-03-16T12:45:45.023Z,99.90
2023-03-16T12:48:29.389Z,99.90
2023-03-16T12:51:01.082Z,99.90
2023-03-16T12:53:42.656Z,99.90
2023-03-16T12:56:16.715Z,99.90
2023-03-16T12:58:50.250Z,99.90
2023-03-16T13:01:28.666Z,99.90
2023-03-16T13:04:04.458Z,99.90
2023-03-16T13:06:44.622Z,99.90
2023-03-16T13:09:22.631Z,99.90
2023-03-16T13:11:59.955Z,99.90
2023-03-16T13:14:42.903Z,99.90
2023-03-16T13:17:29.834Z,99.90
2023-03-16T13:20:11.876Z,99.90
2023-03-16T13:22:48.303Z,99.90
2023-03-16T13:25:22.800Z,99.90
2023-03-16T13:27:56.066Z,99.90
2023-03-16T13:30:32.500Z,99.90
2023-03-16T13:33:09.071Z,99.90
2023-03-16T13:35:45.874Z,99.90
2023-03-16T13:38:21.028Z,98.00
2023-03-16T13:40:55.910Z,98.40
2023-03-16T13:43:40.844Z,97.90
2023-03-16T13:46:18.441Z,97.90
2023-03-16T13:48:51.782Z,98.90
2023-03-16T13:51:22.970Z,98.90
2023-03-16T13:53:54.033Z,98.90
2023-03-16T13:56:27.306Z,99.80
2023-03-16T13:58:58.743Z,99.90
2023-03-16T14:01:31.604Z,99.30
2023-03-16T14:04:08.760Z,99.20
2023-03-16T14:06:43.477Z,99.30
2023-03-16T14:09:35.040Z,99.30
2023-03-16T14:12:04.327Z,98.80
2023-03-16T14:14:42.655Z,98.20
2023-03-16T14:17:19.680Z,98.30
2023-03-16T14:19:51.442Z,97.80
2023-03-16T14:22:47.147Z,97.90
2023-03-16T14:25:25.602Z,98.10
2023-03-16T14:28:00.803Z,98.50
2023-03-16T14:30:32.928Z,98.60
2023-03-16T14:33:29.021Z,99.10
2023-03-16T14:35:59.791Z,99.20
2023-03-16T14:39:05.715Z,99.40
2023-03-16T14:42:09.294Z,99.90
2023-03-16T14:45:09.659Z,99.70
2023-03-16T14:48:44.703Z,99.90
2023-03-16T14:51:28.818Z,99.90
2023-03-16T14:54:07.352Z,99.90
2023-03-16T14:57:24.731Z,99.90
2023-03-16T14:59:55.041Z,99.50
2023-03-16T15:02:31.785Z,99.40
2023-03-16T15:05:07.561Z,99.60
2023-03-16T15:07:52.948Z,99.40
2023-03-16T15:10:58.712Z,99.90
2023-03-16T15:14:07.770Z,99.90
2023-03-16T15:16:43.005Z,99.90
2023-03-16T15:19:25.581Z,99.90
2023-03-16T15:22:00.916Z,99.90
2023-03-16T15:24:34.348Z,99.90
2023-03-16T15:27:08.796Z,99.90
2023-03-16T15:29:45.085Z,99.90
2023-03-16T15:32:15.778Z,99.90
2023-03-16T15:34:46.420Z,99.90
2023-03-16T15:37:16.704Z,99.90
2023-03-16T15:39:54.547Z,99.90
2023-03-16T15:42:23.094Z,99.90
2023-03-16T15:45:13.528Z,99.90
2023-03-16T15:47:42.953Z,99.90
2023-03-16T15:50:15.221Z,99.90
2023-03-16T15:52:46.061Z,99.90
2023-03-16T15:55:23.247Z,99.90
2023-03-16T15:57:58.841Z,99.90
2023-03-16T16:00:33.441Z,99.90
2023-03-16T16:03:03.217Z,99.90
2023-03-16T16:05:32.654Z,99.90
2023-03-16T16:08:01.803Z,99.90
2023-03-16T16:10:35.002Z,99.90
2023-03-16T16:13:04.343Z,99.90
2023-03-16T16:15:37.098Z,99.90
2023-03-16T16:18:30.608Z,99.90
2023-03-16T16:21:00.699Z,99.90
2023-03-16T16:23:29.627Z,99.90
2023-03-16T16:26:02.665Z,99.90
2023-03-16T16:28:32.935Z,99.90
2023-03-16T16:31:02.418Z,99.90
2023-03-16T16:33:33.459Z,99.90
2023-03-16T16:36:04.362Z,99.90
2023-03-16T16:38:33.417Z,99.90
2023-03-16T16:41:07.940Z,99.90
2023-03-16T16:43:39.356Z,99.90
2023-03-16T16:46:13.698Z,99.90
2023-03-16T16:48:49.035Z,99.90
2023-03-16T16:51:20.355Z,99.90
2023-03-16T16:53:49.745Z,99.90
2023-03-16T16:56:26.215Z,99.90
2023-03-16T16:58:56.016Z,99.90
2023-03-16T17:01:29.278Z,99.90
2023-03-16T17:03:58.589Z,99.90
2023-03-16T17:06:28.033Z,99.90
2023-03-16T17:08:56.823Z,99.90
2023-03-16T17:11:30.134Z,99.90
2023-03-16T17:14:01.104Z,99.90
2023-03-16T17:16:33.241Z,99.90
2023-03-16T17:19:07.311Z,99.90
2023-03-16T17:21:39.570Z,99.90
2023-03-16T17:24:10.542Z,99.90
2023-03-16T17:47:21.306Z,99.90
2023-03-16T17:49:59.323Z,99.90
2023-03-16T17:52:30.788Z,99.90
2023-03-16T17:55:01.603Z,99.90
2023-03-16T17:57:35.850Z,99.90
2023-03-16T18:00:22.383Z,99.90
2023-03-16T18:02:55.010Z,99.90
2023-03-16T18:05:25.590Z,99.90
2023-03-16T18:07:54.821Z,99.90
2023-03-16T18:10:26.573Z,99.90
2023-03-16T18:13:02.307Z,99.90
2023-03-16T18:16:13.500Z,99.90
2023-03-16T18:18:44.447Z,99.90
2023-03-16T18:21:19.916Z,99.90
2023-03-16T18:23:48.592Z,99.90
2023-03-16T18:26:17.377Z,99.90
2023-03-16T18:28:46.345Z,99.90
2023-03-16T18:31:22.341Z,99.90
2023-03-16T18:34:01.155Z,99.90
2023-03-16T18:36:32.957Z,99.90
2023-03-16T18:39:07.053Z,99.90
2023-03-16T18:41:36.414Z,99.90
2023-03-16T18:44:16.987Z,99.90
2023-03-16T18:46:48.202Z,99.90
2023-03-16T18:49:23.297Z,99.90
2023-03-16T18:51:54.204Z,99.90
2023-03-16T18:54:29.350Z,99.90
2023-03-16T18:57:00.538Z,99.90
2023-03-16T18:59:48.526Z,99.90
2023-03-16T19:02:30.499Z,99.90
2023-03-16T19:05:03.742Z,99.90
2023-03-16T19:07:57.203Z,99.90
2023-03-16T19:10:28.228Z,99.90
2023-03-16T19:13:20.878Z,99.90
2023-03-16T19:15:50.414Z,99.90
2023-03-16T19:18:20.948Z,99.90
2023-03-16T19:20:52.617Z,99.90
2023-03-16T19:23:35.390Z,99.90
2023-03-16T19:26:04.988Z,99.90
2023-03-16T19:28:47.108Z,99.90
2023-03-16T19:31:22.016Z,99.90
2023-03-16T19:33:53.429Z,99.90
2023-03-16T19:36:25.272Z,99.90
2023-03-16T19:38:54.520Z,99.90
2023-03-16T19:41:28.601Z,99.90
2023-03-16T19:43:59.564Z,99.90
2023-03-16T19:46:30.442Z,99.90
2023-03-16T19:48:59.096Z,99.90
2023-03-16T19:51:31.552Z,99.90
2023-03-16T19:54:01.479Z,99.90
2023-03-16T19:56:30.734Z,99.90
2023-03-16T19:59:00.260Z,99.90
2023-03-16T20:01:35.871Z,99.90
2023-03-16T20:04:07.256Z,99.90
2023-03-16T20:06:37.289Z,99.90
2023-03-16T20:09:06.009Z,99.90
2023-03-16T20:11:34.684Z,99.90
2023-03-16T20:14:03.738Z,99.90
2023-03-16T20:16:33.801Z,99.90
2023-03-16T20:19:05.485Z,99.90
2023-03-16T20:21:33.960Z,99.90
2023-03-16T20:24:04.604Z,99.90
2023-03-16T20:26:33.539Z,99.90
2023-03-16T20:29:02.305Z,99.90
2023-03-16T20:31:34.803Z,99.90
2023-03-16T20:34:03.413Z,99.90
2023-03-16T20:36:32.236Z,99.90
2023-03-16T20:39:00.985Z,99.90
2023-03-16T20:41:41.753Z,99.90
2023-03-16T20:44:15.712Z,99.90
2023-03-16T20:46:45.084Z,99.90
2023-03-16T20:49:31.668Z,99.90
2023-03-16T20:52:00.445Z,99.90
2023-03-16T20:54:29.052Z,99.90
2023-03-16T20:56:58.932Z,99.90
2023-03-16T20:59:30.538Z,99.90
2023-03-16T21:01:59.115Z,99.90
2023-03-16T21:04:32.036Z,99.90
2023-03-16T21:07:00.583Z,99.90
2023-03-16T21:09:31.185Z,99.90
2023-03-16T21:12:01.332Z,99.90
2023-03-16T21:14:29.822Z,99.90
2023-03-16T21:16:58.742Z,99.90
2023-03-16T21:19:27.292Z,99.90
2023-03-16T21:21:55.908Z,99.90
2023-03-16T21:24:24.996Z,99.90
2023-03-16T21:26:54.186Z,99.90
2023-03-16T21:29:24.332Z,99.90
2023-03-16T21:31:53.175Z,99.90
2023-03-16T21:34:26.120Z,99.90
2023-03-16T21:36:54.958Z,99.90
2023-03-16T21:39:25.519Z,99.90
2023-03-16T21:41:54.207Z,99.90
2023-03-16T21:44:24.209Z,99.90
2023-03-16T21:46:52.898Z,99.90
2023-03-16T21:49:21.910Z,99.90
2023-03-16T21:51:51.825Z,99.90
2023-03-16T21:54:20.482Z,99.90
2023-03-16T21:56:49.078Z,99.90
2023-03-16T21:59:17.517Z,99.90
2023-03-16T22:02:01.947Z,99.90
2023-03-16T22:04:31.037Z,99.90
2023-03-16T22:06:59.702Z,99.90
2023-03-16T22:09:30.559Z,99.90
2023-03-16T22:11:59.526Z,99.90
2023-03-16T22:14:28.417Z,99.90
2023-03-16T22:17:00.125Z,99.90
2023-03-16T22:19:28.750Z,99.90
2023-03-16T22:21:57.898Z,99.90
2023-03-16T22:24:29.048Z,99.90
2023-03-16T22:26:58.234Z,99.90
2023-03-16T22:29:28.688Z,99.90
2023-03-16T22:32:01.450Z,99.90
2023-03-16T22:34:33.256Z,99.90
2023-03-16T22:37:05.785Z,99.90
2023-03-16T22:39:38.578Z,99.90
2023-03-16T22:42:28.490Z,99.90
2023-03-16T22:44:57.401Z,99.90
2023-03-16T22:47:37.154Z,99.90
2023-03-16T22:50:07.065Z,99.90
2023-03-16T22:52:38.942Z,99.90
2023-03-16T22:55:09.308Z,99.90
2023-03-16T22:57:42.737Z,99.90
2023-03-16T23:00:14.368Z,99.90
2023-03-16T23:02:45.149Z,99.90
2023-03-16T23:05:21.117Z,99.90
2023-03-16T23:07:49.946Z,99.90
2023-03-16T23:10:24.438Z,99.90
2023-03-16T23:12:54.449Z,99.90
2023-03-16T23:15:26.416Z,99.90
2023-03-16T23:17:56.344Z,99.90
2023-03-16T23:20:28.881Z,99.90
2023-03-16T23:22:57.887Z,99.90
2023-03-16T23:25:26.382Z,99.90
2023-03-16T23:27:55.038Z,99.90
2023-03-16T23:30:25.828Z,99.90
2023-03-16T23:32:56.897Z,99.90
2023-03-16T23:35:27.574Z,99.90
2023-03-16T23:37:57.130Z,99.90
2023-03-16T23:40:27.668Z,99.90
2023-03-16T23:42:58.156Z,99.90
2023-03-16T23:45:32.266Z,99.90
2023-03-16T23:48:06.290Z,99.90
2023-03-16T23:50:37.869Z,99.90
2023-03-16T23:53:12.479Z,99.90
2023-03-16T23:55:42.454Z,99.90
2023-03-16T23:58:10.936Z,99.90
